Nearby METAR Reports

 

EGVN - Brize Norton Raf, United Kingdom
Distance from station: SSE 20mi, 32km
Updated: 23/02/2018 15:50
Few Clouds
Few Clouds
 Wind from E
Wind: E 16 mph , 26 km/h
Temperature: 4°C
Wind Chill: -1°C
Dew Point: -4°C
Humidity: 56%
Barometer: 1019 hPa
Clouds: Few Clouds
Visibility: 6 miles , 10 km
Cloud details: Few Clouds 975 m
2018/02/23 15:50 EGVN 231550Z 09014KT 9999 FEW032 04/M04 Q1019 NOSIG
EGTK - Oxford, United Kingdom
Distance from station: SE 22mi, 35km
Updated: 23/02/2018 15:50
Few Clouds
Few Clouds
 Wind from E
Wind: E 16 mph , 26 km/h
Temperature: 3°C
Wind Chill: -2°C
Dew Point: -3°C
Humidity: 65%
Barometer: 1019 hPa
Clouds: Few Clouds
Visibility: 6 miles , 10 km
Cloud details: Few Clouds 975 m
2018/02/23 15:50 EGTK 231550Z 10014KT 9999 FEW032 03/M03 Q1019
 
EGBJ - Staverton (priva, United Kingdom
Distance from station: WSW 23mi, 36km
Updated: 23/02/2018 15:50
Few Clouds
Few Clouds
 Wind from ENE
Wind: ENE 14 mph , 22 km/h
Temperature: 5°C
Wind Chill: 1°C
Dew Point: -3°C
Humidity: 57%
Barometer: 1019 hPa
Clouds: Few Clouds
Visibility: 6 miles , 10 km
Cloud details: Few Clouds 1219 m
2018/02/23 15:50 EGBJ 231550Z 07012KT 9999 FEW040 05/M03 Q1019
EGVA - Fairford Raf, United Kingdom
Distance from station: S 27mi, 43km
Updated: 23/02/2018 15:56
Clear
Clear
 Wind from E
Wind: E 12 mph , 19 km/h
Temperature: 3°C
Wind Chill: -2°C
Dew Point: -4°C
Humidity: 60%
Barometer: 1019 hPa
Clouds: Clear
2018/02/23 15:56 EGVA 231556Z AUTO 09010KT M M CLR 03/M04 A3009 RMK AO2 SLP198 T00311039 RVRNO $
 
EGBB - Birmingham Airpo, United Kingdom
Distance from station: N 29mi, 46km
Updated: 23/02/2018 15:50
Partly cloudy
Partly cloudy
 Wind from E
Wind: E 12 mph , 19 km/h
Temperature: 4°C
Wind Chill: 0°C
Dew Point: -3°C
Humidity: 61%
Barometer: 1020 hPa
Clouds: Partly cloudy
Visibility: 6 miles , 10 km
Cloud details: Partly cloudy 975 m
2018/02/23 15:50 EGBB 231550Z 08010KT 9999 SCT032 04/M03 Q1020
EGUB - Benson Raf, United Kingdom
Distance from station: SE 40mi, 65km
Updated: 23/02/2018 15:50
Mostly cloudy
Mostly cloudy
 Wind from ENE
Wind: ENE 16 mph , 26 km/h
Temperature: 3°C
Wind Chill: -2°C
Dew Point: -4°C
Humidity: 60%
Barometer: 1019 hPa
Clouds: Mostly cloudy
Visibility: 6 miles , 10 km
Cloud details: Mostly cloudy 1006 m
2018/02/23 15:50 EGUB 231550Z 07014KT 9999 BKN033 03/M04 Q1019 BLU NOSIG
 
EGTC - Cranfield, United Kingdom
Distance from station: E 46mi, 74km
Updated: 23/02/2018 15:50
Mostly cloudy
Mostly cloudy
 Wind from E
Wind: E 14 mph , 22 km/h
Temperature: 3°C
Wind Chill: -2°C
Dew Point: -2°C
Humidity: 70%
Barometer: 1019 hPa
Clouds: Mostly cloudy
Visibility: 4 miles , 7 km
Cloud details: Mostly cloudy 975 m
2018/02/23 15:50 EGTC 231550Z 08012KT 7000 BKN032 03/M02 Q1019
EGWC - Cosford Raf, United Kingdom
Distance from station: NNW 46mi, 75km
Updated: 21/02/2018 15:50
NOT Current
Mostly cloudy
Mostly cloudy
 Wind from NE
Wind: NE 3 mph , 6 km/h
Temperature: 7°C
Dew Point: 2°C
Humidity: 71%
Barometer: 1027 hPa
Clouds: Mostly cloudy
Visibility: 6 miles , 10 km
Cloud details: Few Clouds 610 m
Mostly cloudy 1036 m
2018/02/21 15:50 EGWC 211550Z 05003KT 9999 FEW020 BKN034 07/02 Q1027 BLU